sensor_id;sensor_type;location;lat;lon;timestamp;temperature;humidity
14705;DHT22;7442;50.840;3.396;2022-11-15T00:02:00;21.10;50.80
14705;DHT22;7442;50.840;3.396;2022-11-15T00:04:32;21.10;50.70
14705;DHT22;7442;50.840;3.396;2022-11-15T00:07:02;21.10;50.70
14705;DHT22;7442;50.840;3.396;2022-11-15T00:09:32;21.10;50.70
14705;DHT22;7442;50.840;3.396;2022-11-15T00:12:08;21.10;50.60
14705;DHT22;7442;50.840;3.396;2022-11-15T00:14:34;21.10;50.60
14705;DHT22;7442;50.840;3.396;2022-11-15T00:17:06;21.20;50.40
14705;DHT22;7442;50.840;3.396;2022-11-15T00:19:36;21.20;50.40
14705;DHT22;7442;50.840;3.396;2022-11-15T00:22:06;21.20;50.30
14705;DHT22;7442;50.840;3.396;2022-11-15T00:24:36;21.20;50.30
14705;DHT22;7442;50.840;3.396;2022-11-15T00:27:06;21.30;50.20
14705;DHT22;7442;50.840;3.396;2022-11-15T00:29:36;21.30;50.20
14705;DHT22;7442;50.840;3.396;2022-11-15T00:32:07;21.30;50.20
14705;DHT22;7442;50.840;3.396;2022-11-15T00:34:37;21.30;50.10
14705;DHT22;7442;50.840;3.396;2022-11-15T00:37:07;21.30;50.00
14705;DHT22;7442;50.840;3.396;2022-11-15T00:39:37;21.30;50.10
14705;DHT22;7442;50.840;3.396;2022-11-15T00:42:07;21.30;50.00
14705;DHT22;7442;50.840;3.396;2022-11-15T00:44:37;21.30;50.00
14705;DHT22;7442;50.840;3.396;2022-11-15T00:47:07;21.30;50.10
14705;DHT22;7442;50.840;3.396;2022-11-15T00:49:37;21.30;50.10
14705;DHT22;7442;50.840;3.396;2022-11-15T00:52:07;21.30;50.20
14705;DHT22;7442;50.840;3.396;2022-11-15T00:54:37;21.20;50.20
14705;DHT22;7442;50.840;3.396;2022-11-15T00:57:08;21.20;50.30
14705;DHT22;7442;50.840;3.396;2022-11-15T00:59:39;21.20;50.30
14705;DHT22;7442;50.840;3.396;2022-11-15T01:02:09;21.20;50.40
14705;DHT22;7442;50.840;3.396;2022-11-15T01:04:39;21.20;50.40
14705;DHT22;7442;50.840;3.396;2022-11-15T01:07:09;21.20;50.30
14705;DHT22;7442;50.840;3.396;2022-11-15T01:09:39;21.20;50.30
14705;DHT22;7442;50.840;3.396;2022-11-15T01:12:09;21.20;50.20
14705;DHT22;7442;50.840;3.396;2022-11-15T01:14:39;21.30;50.30
14705;DHT22;7442;50.840;3.396;2022-11-15T01:17:09;21.20;50.20
14705;DHT22;7442;50.840;3.396;2022-11-15T01:19:39;21.30;50.00
14705;DHT22;7442;50.840;3.396;2022-11-15T01:22:09;21.30;50.00
14705;DHT22;7442;50.840;3.396;2022-11-15T01:24:39;21.30;50.00
14705;DHT22;7442;50.840;3.396;2022-11-15T01:27:09;21.30;50.00
14705;DHT22;7442;50.840;3.396;2022-11-15T01:29:40;21.30;50.10
14705;DHT22;7442;50.840;3.396;2022-11-15T01:32:10;21.30;50.10
14705;DHT22;7442;50.840;3.396;2022-11-15T01:34:40;21.30;50.00
14705;DHT22;7442;50.840;3.396;2022-11-15T01:37:11;21.30;49.90
14705;DHT22;7442;50.840;3.396;2022-11-15T01:39:41;21.30;50.00
14705;DHT22;7442;50.840;3.396;2022-11-15T01:42:14;21.30;50.60
14705;DHT22;7442;50.840;3.396;2022-11-15T01:44:47;21.30;50.00
14705;DHT22;7442;50.840;3.396;2022-11-15T01:47:28;21.20;50.10
14705;DHT22;7442;50.840;3.396;2022-11-15T01:50:03;21.20;50.10
14705;DHT22;7442;50.840;3.396;2022-11-15T01:52:34;21.20;50.10
14705;DHT22;7442;50.840;3.396;2022-11-15T01:55:09;21.20;50.00
14705;DHT22;7442;50.840;3.396;2022-11-15T01:57:42;21.20;50.20
14705;DHT22;7442;50.840;3.396;2022-11-15T02:00:14;21.20;50.10
14705;DHT22;7442;50.840;3.396;2022-11-15T02:02:44;21.20;50.20
14705;DHT22;7442;50.840;3.396;2022-11-15T02:05:15;21.20;50.20
14705;DHT22;7442;50.840;3.396;2022-11-15T02:07:46;21.20;50.20
14705;DHT22;7442;50.840;3.396;2022-11-15T02:10:20;21.20;50.20
14705;DHT22;7442;50.840;3.396;2022-11-15T02:12:51;21.20;50.00
14705;DHT22;7442;50.840;3.396;2022-11-15T02:15:27;21.30;50.10
14705;DHT22;7442;50.840;3.396;2022-11-15T02:18:28;21.30;50.10
14705;DHT22;7442;50.840;3.396;2022-11-15T02:31:46;21.30;49.90
14705;DHT22;7442;50.840;3.396;2022-11-15T02:37:16;21.30;49.90
14705;DHT22;7442;50.840;3.396;2022-11-15T02:42:36;21.30;50.00
14705;DHT22;7442;50.840;3.396;2022-11-15T02:45:32;21.30;50.00
14705;DHT22;7442;50.840;3.396;2022-11-15T02:48:04;21.20;50.00
14705;DHT22;7442;50.840;3.396;2022-11-15T02:50:35;21.20;50.00
14705;DHT22;7442;50.840;3.396;2022-11-15T02:53:09;21.20;50.00
14705;DHT22;7442;50.840;3.396;2022-11-15T02:55:47;21.20;50.00
14705;DHT22;7442;50.840;3.396;2022-11-15T03:07:00;21.10;50.10
14705;DHT22;7442;50.840;3.396;2022-11-15T03:09:34;21.20;50.10
14705;DHT22;7442;50.840;3.396;2022-11-15T03:12:14;21.20;50.10
14705;DHT22;7442;50.840;3.396;2022-11-15T03:14:58;21.20;50.10
14705;DHT22;7442;50.840;3.396;2022-11-15T03:17:51;21.20;50.10
14705;DHT22;7442;50.840;3.396;2022-11-15T03:20:14;21.20;49.90
14705;DHT22;7442;50.840;3.396;2022-11-15T03:22:47;21.20;50.00
14705;DHT22;7442;50.840;3.396;2022-11-15T03:25:20;21.20;49.90
14705;DHT22;7442;50.840;3.396;2022-11-15T03:27:55;21.20;50.00
14705;DHT22;7442;50.840;3.396;2022-11-15T03:30:27;21.20;50.00
14705;DHT22;7442;50.840;3.396;2022-11-15T03:32:59;21.20;50.00
14705;DHT22;7442;50.840;3.396;2022-11-15T03:35:35;21.20;49.90
14705;DHT22;7442;50.840;3.396;2022-11-15T03:38:26;21.20;49.90
14705;DHT22;7442;50.840;3.396;2022-11-15T03:41:01;21.20;50.00
14705;DHT22;7442;50.840;3.396;2022-11-15T03:43:59;21.20;50.00
14705;DHT22;7442;50.840;3.396;2022-11-15T03:46:26;21.20;50.00
14705;DHT22;7442;50.840;3.396;2022-11-15T03:49:46;21.20;50.00
14705;DHT22;7442;50.840;3.396;2022-11-15T03:51:36;21.10;50.10
14705;DHT22;7442;50.840;3.396;2022-11-15T03:54:06;21.10;50.20
14705;DHT22;7442;50.840;3.396;2022-11-15T03:56:38;21.10;50.20
14705;DHT22;7442;50.840;3.396;2022-11-15T03:59:10;21.10;50.20
14705;DHT22;7442;50.840;3.396;2022-11-15T04:01:40;21.10;50.20
14705;DHT22;7442;50.840;3.396;2022-11-15T04:04:10;21.10;50.20
14705;DHT22;7442;50.840;3.396;2022-11-15T04:06:40;21.10;50.30
14705;DHT22;7442;50.840;3.396;2022-11-15T04:09:10;21.10;50.30
14705;DHT22;7442;50.840;3.396;2022-11-15T04:11:40;21.00;50.30
14705;DHT22;7442;50.840;3.396;2022-11-15T04:14:10;21.00;50.40
14705;DHT22;7442;50.840;3.396;2022-11-15T04:16:40;20.90;50.40
14705;DHT22;7442;50.840;3.396;2022-11-15T04:19:10;21.00;50.40
14705;DHT22;7442;50.840;3.396;2022-11-15T04:22:07;21.00;50.40
14705;DHT22;7442;50.840;3.396;2022-11-15T04:24:55;21.00;50.50
14705;DHT22;7442;50.840;3.396;2022-11-15T04:27:25;20.90;50.50
14705;DHT22;7442;50.840;3.396;2022-11-15T04:29:57;20.90;50.50
14705;DHT22;7442;50.840;3.396;2022-11-15T04:32:27;20.90;50.50
14705;DHT22;7442;50.840;3.396;2022-11-15T04:34:57;20.90;50.50
14705;DHT22;7442;50.840;3.396;2022-11-15T04:37:27;20.90;50.60
14705;DHT22;7442;50.840;3.396;2022-11-15T04:39:57;20.80;50.50
14705;DHT22;7442;50.840;3.396;2022-11-15T04:42:27;20.80;50.60
14705;DHT22;7442;50.840;3.396;2022-11-15T04:44:57;20.80;50.60
14705;DHT22;7442;50.840;3.396;2022-11-15T04:47:27;20.80;50.60
14705;DHT22;7442;50.840;3.396;2022-11-15T04:49:58;20.80;50.60
14705;DHT22;7442;50.840;3.396;2022-11-15T04:52:31;20.80;51.20
14705;DHT22;7442;50.840;3.396;2022-11-15T04:55:01;20.80;50.70
14705;DHT22;7442;50.840;3.396;2022-11-15T04:57:37;20.80;50.70
14705;DHT22;7442;50.840;3.396;2022-11-15T05:00:10;20.80;50.70
14705;DHT22;7442;50.840;3.396;2022-11-15T05:02:40;20.80;50.70
14705;DHT22;7442;50.840;3.396;2022-11-15T05:05:28;20.80;50.70
14705;DHT22;7442;50.840;3.396;2022-11-15T05:07:58;20.80;50.70
14705;DHT22;7442;50.840;3.396;2022-11-15T05:10:28;20.80;50.80
14705;DHT22;7442;50.840;3.396;2022-11-15T05:12:58;20.80;50.70
14705;DHT22;7442;50.840;3.396;2022-11-15T05:15:28;20.70;50.70
14705;DHT22;7442;50.840;3.396;2022-11-15T05:17:59;20.70;50.80
14705;DHT22;7442;50.840;3.396;2022-11-15T05:20:29;20.70;50.80
14705;DHT22;7442;50.840;3.396;2022-11-15T05:22:59;20.70;50.80
14705;DHT22;7442;50.840;3.396;2022-11-15T05:25:30;20.70;50.80
14705;DHT22;7442;50.840;3.396;2022-11-15T05:28:00;20.70;50.80
14705;DHT22;7442;50.840;3.396;2022-11-15T05:30:30;20.70;50.90
14705;DHT22;7442;50.840;3.396;2022-11-15T05:33:01;20.70;50.90
14705;DHT22;7442;50.840;3.396;2022-11-15T05:35:34;20.70;50.90
14705;DHT22;7442;50.840;3.396;2022-11-15T05:38:04;20.70;50.90
14705;DHT22;7442;50.840;3.396;2022-11-15T05:40:34;20.70;50.90
14705;DHT22;7442;50.840;3.396;2022-11-15T05:43:05;20.70;50.90
14705;DHT22;7442;50.840;3.396;2022-11-15T05:45:36;20.70;51.00
14705;DHT22;7442;50.840;3.396;2022-11-15T05:48:08;20.70;50.90
14705;DHT22;7442;50.840;3.396;2022-11-15T05:50:41;20.70;50.90
14705;DHT22;7442;50.840;3.396;2022-11-15T05:53:14;20.60;50.90
14705;DHT22;7442;50.840;3.396;2022-11-15T05:55:45;20.60;51.00
14705;DHT22;7442;50.840;3.396;2022-11-15T05:58:15;20.60;51.00
14705;DHT22;7442;50.840;3.396;2022-11-15T06:00:45;20.60;50.90
14705;DHT22;7442;50.840;3.396;2022-11-15T06:03:15;20.70;51.00
14705;DHT22;7442;50.840;3.396;2022-11-15T06:05:45;20.60;50.90
14705;DHT22;7442;50.840;3.396;2022-11-15T06:08:15;20.70;51.00
14705;DHT22;7442;50.840;3.396;2022-11-15T06:10:45;20.60;51.60
14705;DHT22;7442;50.840;3.396;2022-11-15T06:13:15;20.60;51.10
14705;DHT22;7442;50.840;3.396;2022-11-15T06:15:45;20.70;51.20
14705;DHT22;7442;50.840;3.396;2022-11-15T06:18:15;20.60;51.30
14705;DHT22;7442;50.840;3.396;2022-11-15T06:20:45;20.60;51.30
14705;DHT22;7442;50.840;3.396;2022-11-15T06:23:16;20.70;51.50
14705;DHT22;7442;50.840;3.396;2022-11-15T06:25:46;20.70;51.50
14705;DHT22;7442;50.840;3.396;2022-11-15T06:28:16;20.70;51.70
14705;DHT22;7442;50.840;3.396;2022-11-15T06:30:46;20.60;51.70
14705;DHT22;7442;50.840;3.396;2022-11-15T06:33:16;20.60;51.90
14705;DHT22;7442;50.840;3.396;2022-11-15T06:35:46;20.70;52.20
14705;DHT22;7442;50.840;3.396;2022-11-15T06:38:16;20.70;52.10
14705;DHT22;7442;50.840;3.396;2022-11-15T06:40:46;20.70;52.30
14705;DHT22;7442;50.840;3.396;2022-11-15T06:43:16;20.50;52.60
14705;DHT22;7442;50.840;3.396;2022-11-15T06:45:46;20.50;52.80
14705;DHT22;7442;50.840;3.396;2022-11-15T06:48:16;20.50;52.80
14705;DHT22;7442;50.840;3.396;2022-11-15T06:50:57;20.50;52.90
14705;DHT22;7442;50.840;3.396;2022-11-15T06:53:29;20.50;53.50
14705;DHT22;7442;50.840;3.396;2022-11-15T06:56:00;20.50;52.80
14705;DHT22;7442;50.840;3.396;2022-11-15T06:58:31;20.50;52.70
14705;DHT22;7442;50.840;3.396;2022-11-15T07:01:07;20.60;52.70
14705;DHT22;7442;50.840;3.396;2022-11-15T07:03:39;20.60;52.60
14705;DHT22;7442;50.840;3.396;2022-11-15T07:06:10;20.60;52.80
14705;DHT22;7442;50.840;3.396;2022-11-15T07:08:40;20.60;52.60
14705;DHT22;7442;50.840;3.396;2022-11-15T07:11:10;20.60;52.50
14705;DHT22;7442;50.840;3.396;2022-11-15T07:13:40;20.60;52.60
14705;DHT22;7442;50.840;3.396;2022-11-15T07:16:11;20.60;52.40
14705;DHT22;7442;50.840;3.396;2022-11-15T07:18:41;20.70;52.50
14705;DHT22;7442;50.840;3.396;2022-11-15T07:21:11;20.70;52.40
14705;DHT22;7442;50.840;3.396;2022-11-15T07:23:41;20.70;52.30
14705;DHT22;7442;50.840;3.396;2022-11-15T07:26:11;20.80;52.10
14705;DHT22;7442;50.840;3.396;2022-11-15T07:28:45;20.80;52.00
14705;DHT22;7442;50.840;3.396;2022-11-15T07:31:17;20.80;52.10
14705;DHT22;7442;50.840;3.396;2022-11-15T07:33:47;20.80;52.10
14705;DHT22;7442;50.840;3.396;2022-11-15T07:36:17;20.80;52.10
14705;DHT22;7442;50.840;3.396;2022-11-15T07:38:48;20.80;52.10
14705;DHT22;7442;50.840;3.396;2022-11-15T07:41:18;20.90;52.10
14705;DHT22;7442;50.840;3.396;2022-11-15T07:43:52;20.90;51.90
14705;DHT22;7442;50.840;3.396;2022-11-15T07:46:22;21.00;51.80
14705;DHT22;7442;50.840;3.396;2022-11-15T07:48:52;21.10;52.10
14705;DHT22;7442;50.840;3.396;2022-11-15T07:51:22;21.20;51.60
14705;DHT22;7442;50.840;3.396;2022-11-15T07:53:52;21.40;51.20
14705;DHT22;7442;50.840;3.396;2022-11-15T07:56:22;21.60;50.90
14705;DHT22;7442;50.840;3.396;2022-11-15T07:58:52;21.70;50.60
14705;DHT22;7442;50.840;3.396;2022-11-15T08:01:22;21.60;50.80
14705;DHT22;7442;50.840;3.396;2022-11-15T08:03:52;21.50;51.10
14705;DHT22;7442;50.840;3.396;2022-11-15T08:06:22;21.60;50.80
14705;DHT22;7442;50.840;3.396;2022-11-15T08:08:52;21.70;50.60
14705;DHT22;7442;50.840;3.396;2022-11-15T08:11:22;21.80;50.40
14705;DHT22;7442;50.840;3.396;2022-11-15T08:13:52;21.80;50.30
14705;DHT22;7442;50.840;3.396;2022-11-15T08:16:22;21.80;50.10
14705;DHT22;7442;50.840;3.396;2022-11-15T08:18:52;21.80;50.10
14705;DHT22;7442;50.840;3.396;2022-11-15T08:21:23;21.90;50.00
14705;DHT22;7442;50.840;3.396;2022-11-15T08:23:53;21.90;49.90
14705;DHT22;7442;50.840;3.396;2022-11-15T08:26:23;21.90;50.10
14705;DHT22;7442;50.840;3.396;2022-11-15T08:28:54;21.80;50.70
14705;DHT22;7442;50.840;3.396;2022-11-15T08:31:25;21.70;50.70
14705;DHT22;7442;50.840;3.396;2022-11-15T08:33:55;21.60;51.00
14705;DHT22;7442;50.840;3.396;2022-11-15T08:36:25;21.50;51.10
14705;DHT22;7442;50.840;3.396;2022-11-15T08:38:55;21.40;51.00
14705;DHT22;7442;50.840;3.396;2022-11-15T08:41:33;21.50;51.20
14705;DHT22;7442;50.840;3.396;2022-11-15T08:44:05;21.50;51.20
14705;DHT22;7442;50.840;3.396;2022-11-15T08:46:35;21.60;51.00
14705;DHT22;7442;50.840;3.396;2022-11-15T08:49:05;21.50;51.10
14705;DHT22;7442;50.840;3.396;2022-11-15T08:51:35;21.50;50.90
14705;DHT22;7442;50.840;3.396;2022-11-15T08:54:05;21.60;50.70
14705;DHT22;7442;50.840;3.396;2022-11-15T08:56:35;21.50;50.90
14705;DHT22;7442;50.840;3.396;2022-11-15T08:59:05;21.50;51.10
14705;DHT22;7442;50.840;3.396;2022-11-15T09:01:35;21.40;50.80
14705;DHT22;7442;50.840;3.396;2022-11-15T09:04:05;21.40;50.80
14705;DHT22;7442;50.840;3.396;2022-11-15T09:06:35;21.40;51.00
14705;DHT22;7442;50.840;3.396;2022-11-15T09:09:06;21.60;50.60
14705;DHT22;7442;50.840;3.396;2022-11-15T09:11:43;21.80;50.00
14705;DHT22;7442;50.840;3.396;2022-11-15T09:14:13;22.00;49.70
14705;DHT22;7442;50.840;3.396;2022-11-15T09:16:44;22.10;50.20
14705;DHT22;7442;50.840;3.396;2022-11-15T09:19:14;22.10;49.30
14705;DHT22;7442;50.840;3.396;2022-11-15T09:21:44;22.20;49.20
14705;DHT22;7442;50.840;3.396;2022-11-15T09:24:20;22.20;49.20
14705;DHT22;7442;50.840;3.396;2022-11-15T09:26:51;22.30;49.30
14705;DHT22;7442;50.840;3.396;2022-11-15T09:29:21;22.30;49.30
14705;DHT22;7442;50.840;3.396;2022-11-15T09:31:54;22.30;49.30
14705;DHT22;7442;50.840;3.396;2022-11-15T09:34:24;22.30;49.40
14705;DHT22;7442;50.840;3.396;2022-11-15T09:36:54;22.10;49.60
14705;DHT22;7442;50.840;3.396;2022-11-15T09:39:31;22.00;49.80
14705;DHT22;7442;50.840;3.396;2022-11-15T09:44:55;21.90;50.10
14705;DHT22;7442;50.840;3.396;2022-11-15T09:50:08;21.80;50.20
14705;DHT22;7442;50.840;3.396;2022-11-15T09:52:35;21.90;50.20
14705;DHT22;7442;50.840;3.396;2022-11-15T09:55:08;22.10;49.90
14705;DHT22;7442;50.840;3.396;2022-11-15T09:57:45;22.10;49.80
14705;DHT22;7442;50.840;3.396;2022-11-15T10:00:25;22.20;49.70
14705;DHT22;7442;50.840;3.396;2022-11-15T10:05:38;22.30;49.60
14705;DHT22;7442;50.840;3.396;2022-11-15T10:08:55;22.40;49.30
14705;DHT22;7442;50.840;3.396;2022-11-15T10:10:39;22.50;49.30
14705;DHT22;7442;50.840;3.396;2022-11-15T10:13:13;22.60;49.00
14705;DHT22;7442;50.840;3.396;2022-11-15T10:15:44;22.60;49.00
14705;DHT22;7442;50.840;3.396;2022-11-15T10:18:24;22.60;49.10
14705;DHT22;7442;50.840;3.396;2022-11-15T10:21:29;22.60;48.90
14705;DHT22;7442;50.840;3.396;2022-11-15T10:23:51;22.70;48.80
14705;DHT22;7442;50.840;3.396;2022-11-15T10:26:23;22.80;48.80
14705;DHT22;7442;50.840;3.396;2022-11-15T10:28:53;22.80;48.50
14705;DHT22;7442;50.840;3.396;2022-11-15T10:31:26;22.90;48.60
14705;DHT22;7442;50.840;3.396;2022-11-15T10:34:18;22.90;48.60
14705;DHT22;7442;50.840;3.396;2022-11-15T10:36:59;22.90;48.60
14705;DHT22;7442;50.840;3.396;2022-11-15T10:39:31;22.90;48.60
14705;DHT22;7442;50.840;3.396;2022-11-15T10:42:26;22.80;48.80
14705;DHT22;7442;50.840;3.396;2022-11-15T10:44:56;22.60;49.10
14705;DHT22;7442;50.840;3.396;2022-11-15T10:47:31;22.60;49.20
14705;DHT22;7442;50.840;3.396;2022-11-15T10:50:04;22.50;49.60
14705;DHT22;7442;50.840;3.396;2022-11-15T10:52:36;22.40;50.60
14705;DHT22;7442;50.840;3.396;2022-11-15T10:55:20;22.30;49.80
14705;DHT22;7442;50.840;3.396;2022-11-15T10:57:52;22.30;49.80
14705;DHT22;7442;50.840;3.396;2022-11-15T11:00:31;22.30;49.90
14705;DHT22;7442;50.840;3.396;2022-11-15T11:03:06;22.30;50.00
14705;DHT22;7442;50.840;3.396;2022-11-15T11:05:39;22.50;49.60
14705;DHT22;7442;50.840;3.396;2022-11-15T11:10:57;22.50;49.80
14705;DHT22;7442;50.840;3.396;2022-11-15T11:13:30;22.80;49.20
14705;DHT22;7442;50.840;3.396;2022-11-15T11:19:15;23.00;48.50
14705;DHT22;7442;50.840;3.396;2022-11-15T11:30:06;22.50;49.60
14705;DHT22;7442;50.840;3.396;2022-11-15T11:32:42;22.50;49.80
14705;DHT22;7442;50.840;3.396;2022-11-15T11:37:59;22.40;50.20
14705;DHT22;7442;50.840;3.396;2022-11-15T11:40:43;22.30;50.50
14705;DHT22;7442;50.840;3.396;2022-11-15T11:49:09;22.40;50.10
14705;DHT22;7442;50.840;3.396;2022-11-15T11:51:23;22.40;50.20
14705;DHT22;7442;50.840;3.396;2022-11-15T11:56:31;22.30;50.20
14705;DHT22;7442;50.840;3.396;2022-11-15T11:59:28;22.30;50.30
14705;DHT22;7442;50.840;3.396;2022-11-15T12:01:58;22.30;50.40
14705;DHT22;7442;50.840;3.396;2022-11-15T12:04:37;22.20;50.50
14705;DHT22;7442;50.840;3.396;2022-11-15T12:10:11;22.30;50.40
14705;DHT22;7442;50.840;3.396;2022-11-15T12:12:45;22.30;50.40
14705;DHT22;7442;50.840;3.396;2022-11-15T12:15:17;22.30;50.30
14705;DHT22;7442;50.840;3.396;2022-11-15T12:17:48;22.20;50.60
14705;DHT22;7442;50.840;3.396;2022-11-15T12:20:27;22.30;50.20
14705;DHT22;7442;50.840;3.396;2022-11-15T12:23:28;22.30;50.20
14705;DHT22;7442;50.840;3.396;2022-11-15T12:26:06;22.40;50.00
14705;DHT22;7442;50.840;3.396;2022-11-15T12:28:55;22.50;50.00
14705;DHT22;7442;50.840;3.396;2022-11-15T12:31:37;22.40;50.10
14705;DHT22;7442;50.840;3.396;2022-11-15T12:36:52;22.50;49.90
14705;DHT22;7442;50.840;3.396;2022-11-15T12:47:26;22.30;50.10
14705;DHT22;7442;50.840;3.396;2022-11-15T12:49:55;22.40;50.00
14705;DHT22;7442;50.840;3.396;2022-11-15T12:52:25;22.40;50.00
14705;DHT22;7442;50.840;3.396;2022-11-15T12:54:58;22.40;50.10
14705;DHT22;7442;50.840;3.396;2022-11-15T12:57:33;22.40;50.00
14705;DHT22;7442;50.840;3.396;2022-11-15T13:02:46;22.50;50.00
14705;DHT22;7442;50.840;3.396;2022-11-15T13:07:58;22.50;50.00
14705;DHT22;7442;50.840;3.396;2022-11-15T13:10:33;22.40;50.10
14705;DHT22;7442;50.840;3.396;2022-11-15T13:13:10;22.40;50.10
14705;DHT22;7442;50.840;3.396;2022-11-15T13:15:56;22.40;50.20
14705;DHT22;7442;50.840;3.396;2022-11-15T13:18:33;22.40;50.20
14705;DHT22;7442;50.840;3.396;2022-11-15T13:21:16;22.40;50.20
14705;DHT22;7442;50.840;3.396;2022-11-15T13:23:38;22.40;50.10
14705;DHT22;7442;50.840;3.396;2022-11-15T13:26:15;22.40;50.20
14705;DHT22;7442;50.840;3.396;2022-11-15T13:28:51;22.40;50.30
14705;DHT22;7442;50.840;3.396;2022-11-15T13:31:40;22.40;50.30
14705;DHT22;7442;50.840;3.396;2022-11-15T13:34:29;22.40;50.50
14705;DHT22;7442;50.840;3.396;2022-11-15T13:37:03;22.30;50.40
14705;DHT22;7442;50.840;3.396;2022-11-15T13:39:34;22.30;50.40
14705;DHT22;7442;50.840;3.396;2022-11-15T13:42:13;22.40;50.30
14705;DHT22;7442;50.840;3.396;2022-11-15T13:44:39;22.30;50.30
14705;DHT22;7442;50.840;3.396;2022-11-15T13:47:19;22.30;50.50
14705;DHT22;7442;50.840;3.396;2022-11-15T13:49:49;22.30;50.50
14705;DHT22;7442;50.840;3.396;2022-11-15T13:52:19;22.30;50.50
14705;DHT22;7442;50.840;3.396;2022-11-15T14:01:04;22.30;50.50
14705;DHT22;7442;50.840;3.396;2022-11-15T14:03:16;22.30;50.60
14705;DHT22;7442;50.840;3.396;2022-11-15T14:06:09;22.30;50.70
14705;DHT22;7442;50.840;3.396;2022-11-15T14:11:35;22.20;50.80
14705;DHT22;7442;50.840;3.396;2022-11-15T14:16:45;22.30;50.90
14705;DHT22;7442;50.840;3.396;2022-11-15T14:22:18;22.40;50.40
14705;DHT22;7442;50.840;3.396;2022-11-15T14:25:18;22.30;50.70
14705;DHT22;7442;50.840;3.396;2022-11-15T14:28:15;22.10;51.10
14705;DHT22;7442;50.840;3.396;2022-11-15T14:30:46;22.10;51.20
14705;DHT22;7442;50.840;3.396;2022-11-15T14:33:29;22.10;51.40
14705;DHT22;7442;50.840;3.396;2022-11-15T14:36:05;22.10;52.10
14705;DHT22;7442;50.840;3.396;2022-11-15T14:38:36;22.10;51.40
14705;DHT22;7442;50.840;3.396;2022-11-15T14:41:10;22.10;51.50
14705;DHT22;7442;50.840;3.396;2022-11-15T14:43:37;22.30;51.20
14705;DHT22;7442;50.840;3.396;2022-11-15T14:46:07;22.40;51.10
14705;DHT22;7442;50.840;3.396;2022-11-15T14:48:37;22.30;51.20
14705;DHT22;7442;50.840;3.396;2022-11-15T14:51:19;22.30;51.20
14705;DHT22;7442;50.840;3.396;2022-11-15T14:53:46;22.20;51.20
14705;DHT22;7442;50.840;3.396;2022-11-15T14:56:16;22.20;51.30
14705;DHT22;7442;50.840;3.396;2022-11-15T14:58:46;22.20;51.40
14705;DHT22;7442;50.840;3.396;2022-11-15T15:01:26;22.20;51.60
14705;DHT22;7442;50.840;3.396;2022-11-15T15:03:56;22.10;51.60
14705;DHT22;7442;50.840;3.396;2022-11-15T15:06:27;22.10;51.70
14705;DHT22;7442;50.840;3.396;2022-11-15T15:08:58;22.20;51.90
14705;DHT22;7442;50.840;3.396;2022-11-15T15:11:31;22.20;52.20
14705;DHT22;7442;50.840;3.396;2022-11-15T15:14:01;22.10;52.20
14705;DHT22;7442;50.840;3.396;2022-11-15T15:16:32;22.20;52.50
14705;DHT22;7442;50.840;3.396;2022-11-15T15:19:02;22.20;52.80
14705;DHT22;7442;50.840;3.396;2022-11-15T15:21:32;22.30;53.00
14705;DHT22;7442;50.840;3.396;2022-11-15T15:24:02;22.20;53.00
14705;DHT22;7442;50.840;3.396;2022-11-15T15:26:32;22.20;53.40
14705;DHT22;7442;50.840;3.396;2022-11-15T15:29:05;22.20;53.40
14705;DHT22;7442;50.840;3.396;2022-11-15T15:31:37;22.20;54.10
14705;DHT22;7442;50.840;3.396;2022-11-15T15:34:07;22.30;53.70
14705;DHT22;7442;50.840;3.396;2022-11-15T15:36:37;22.30;53.90
14705;DHT22;7442;50.840;3.396;2022-11-15T15:39:09;22.30;54.30
14705;DHT22;7442;50.840;3.396;2022-11-15T15:41:41;22.20;54.80
14705;DHT22;7442;50.840;3.396;2022-11-15T15:44:11;22.20;54.80
14705;DHT22;7442;50.840;3.396;2022-11-15T15:46:41;22.20;55.60
14705;DHT22;7442;50.840;3.396;2022-11-15T15:49:11;22.20;55.00
14705;DHT22;7442;50.840;3.396;2022-11-15T15:51:41;22.10;54.90
14705;DHT22;7442;50.840;3.396;2022-11-15T15:54:12;22.10;55.00
14705;DHT22;7442;50.840;3.396;2022-11-15T15:56:43;22.10;54.90
14705;DHT22;7442;50.840;3.396;2022-11-15T15:59:13;22.10;54.80
14705;DHT22;7442;50.840;3.396;2022-11-15T16:01:43;22.10;54.80
14705;DHT22;7442;50.840;3.396;2022-11-15T16:04:14;22.10;54.80
14705;DHT22;7442;50.840;3.396;2022-11-15T16:06:44;22.10;54.70
14705;DHT22;7442;50.840;3.396;2022-11-15T16:09:18;22.00;54.80
14705;DHT22;7442;50.840;3.396;2022-11-15T16:11:50;22.10;54.30
14705;DHT22;7442;50.840;3.396;2022-11-15T16:14:20;22.10;54.60
14705;DHT22;7442;50.840;3.396;2022-11-15T16:16:50;22.00;54.60
14705;DHT22;7442;50.840;3.396;2022-11-15T16:19:24;22.00;54.60
14705;DHT22;7442;50.840;3.396;2022-11-15T16:21:54;22.00;54.60
14705;DHT22;7442;50.840;3.396;2022-11-15T16:24:24;22.00;54.60
14705;DHT22;7442;50.840;3.396;2022-11-15T16:26:55;21.90;54.50
14705;DHT22;7442;50.840;3.396;2022-11-15T16:29:25;21.90;54.50
14705;DHT22;7442;50.840;3.396;2022-11-15T16:31:55;21.90;54.50
14705;DHT22;7442;50.840;3.396;2022-11-15T16:34:25;21.90;54.50
14705;DHT22;7442;50.840;3.396;2022-11-15T16:36:55;21.80;54.40
14705;DHT22;7442;50.840;3.396;2022-11-15T16:39:25;21.80;54.40
14705;DHT22;7442;50.840;3.396;2022-11-15T16:41:59;21.80;54.40
14705;DHT22;7442;50.840;3.396;2022-11-15T16:44:30;21.80;54.30
14705;DHT22;7442;50.840;3.396;2022-11-15T16:47:01;21.80;54.40
14705;DHT22;7442;50.840;3.396;2022-11-15T16:49:31;21.80;54.20
14705;DHT22;7442;50.840;3.396;2022-11-15T16:52:03;21.80;54.10
14705;DHT22;7442;50.840;3.396;2022-11-15T16:54:33;21.80;54.10
14705;DHT22;7442;50.840;3.396;2022-11-15T16:57:03;21.90;54.20
14705;DHT22;7442;50.840;3.396;2022-11-15T16:59:33;22.00;53.70
14705;DHT22;7442;50.840;3.396;2022-11-15T17:02:04;22.10;53.40
14705;DHT22;7442;50.840;3.396;2022-11-15T17:04:35;22.20;53.20
14705;DHT22;7442;50.840;3.396;2022-11-15T17:07:07;22.10;53.50
14705;DHT22;7442;50.840;3.396;2022-11-15T17:09:37;22.00;53.80
14705;DHT22;7442;50.840;3.396;2022-11-15T17:12:08;22.00;54.00
14705;DHT22;7442;50.840;3.396;2022-11-15T17:14:39;21.80;54.20
14705;DHT22;7442;50.840;3.396;2022-11-15T17:17:10;21.90;54.30
14705;DHT22;7442;50.840;3.396;2022-11-15T17:19:40;22.00;54.10
14705;DHT22;7442;50.840;3.396;2022-11-15T17:22:10;22.10;53.80
14705;DHT22;7442;50.840;3.396;2022-11-15T17:24:40;22.10;53.80
14705;DHT22;7442;50.840;3.396;2022-11-15T17:27:10;22.20;54.00
14705;DHT22;7442;50.840;3.396;2022-11-15T17:29:47;22.10;54.00
14705;DHT22;7442;50.840;3.396;2022-11-15T17:32:17;22.00;54.10
14705;DHT22;7442;50.840;3.396;2022-11-15T17:34:53;22.10;54.10
14705;DHT22;7442;50.840;3.396;2022-11-15T17:37:23;22.00;54.10
14705;DHT22;7442;50.840;3.396;2022-11-15T17:39:54;22.00;54.30
14705;DHT22;7442;50.840;3.396;2022-11-15T17:42:24;21.90;54.40
14705;DHT22;7442;50.840;3.396;2022-11-15T17:44:54;21.90;54.40
14705;DHT22;7442;50.840;3.396;2022-11-15T17:47:24;21.90;54.30
14705;DHT22;7442;50.840;3.396;2022-11-15T17:49:54;21.90;54.40
14705;DHT22;7442;50.840;3.396;2022-11-15T17:52:24;21.80;54.30